Time;durP1;ratioP1;P1;durP2;ratioP2;P2;SDS_P1;SDS_P2;PMS_P1;PMS_P2;Temp;Humidity;BMP_temperature;BMP_pressure;BME280_temperature;BME280_humidity;BME280_pressure;Samples;Min_cycle;Max_cycle;Signal;HPM_P1;HPM_P2
2024/01/13 00:01:12;;;;;;;1999.90;999.90;;;;;;;-1.02;67.49;96763.47;5113372;28;20043;-68
2024/01/13 00:03:39;;;;;;;1999.90;999.90;;;;;;;-1.00;66.64;96763.47;5113117;28;20055;-63
2024/01/13 00:06:06;;;;;;;1999.90;999.90;;;;;;;-1.02;66.66;96764.31;5113642;28;20175;-65
2024/01/13 00:08:33;;;;;;;1999.90;999.90;;;;;;;-1.03;66.66;96760.03;5113617;28;20043;-69
2024/01/13 00:11:01;;;;;;;1999.90;999.90;;;;;;;-1.00;66.72;96764.31;5113548;28;20070;-63
2024/01/13 00:13:28;;;;;;;1999.90;999.90;;;;;;;-1.03;66.84;96754.88;5113592;28;20056;-68
2024/01/13 00:15:56;;;;;;;1999.90;999.90;;;;;;;-0.99;67.27;96758.38;5113379;28;20044;-65
2024/01/13 00:18:23;;;;;;;1999.90;999.90;;;;;;;-1.07;67.44;96758.28;5113418;28;20497;-69
2024/01/13 00:20:50;;;;;;;1999.90;999.90;;;;;;;-1.12;67.81;96751.38;5113369;28;20055;-67
2024/01/13 00:23:18;;;;;;;1999.90;999.90;;;;;;;-1.16;68.18;96750.44;5113418;28;20096;-65
2024/01/13 00:25:46;;;;;;;1999.90;999.90;;;;;;;-1.13;68.68;96754.75;5113423;28;20040;-65
2024/01/13 00:28:13;;;;;;;1999.90;999.90;;;;;;;-1.15;68.77;96753.03;5113342;28;20052;-66
2024/01/13 00:30:40;;;;;;;1999.90;999.90;;;;;;;-1.19;69.10;96748.72;5113116;28;20447;-66
2024/01/13 00:33:09;;;;;;;1999.90;999.90;;;;;;;-1.21;69.28;96745.25;5113475;28;20113;-65
2024/01/13 00:35:36;;;;;;;1999.90;999.90;;;;;;;-1.18;69.44;96755.56;5113288;28;20100;-66
2024/01/13 00:38:03;;;;;;;1999.90;999.90;;;;;;;-1.18;69.43;96753.00;5113390;28;20052;-66
2024/01/13 00:40:30;;;;;;;1999.90;999.90;;;;;;;-1.17;69.33;96759.84;5113109;28;20054;-69
2024/01/13 00:42:59;;;;;;;1999.90;999.90;;;;;;;-1.15;69.10;96750.47;5113210;28;20044;-68
2024/01/13 00:45:26;;;;;;;1999.90;999.90;;;;;;;-1.13;69.35;96753.06;5113328;28;20473;-62
2024/01/13 00:47:53;;;;;;;1999.90;999.90;;;;;;;-1.10;69.07;96754.78;5113256;28;20048;-64
2024/01/13 00:50:21;;;;;;;1999.90;999.90;;;;;;;-1.07;68.94;96747.13;5113131;28;20558;-66
2024/01/13 00:52:48;;;;;;;1999.90;999.90;;;;;;;-1.07;68.63;96744.56;5113015;28;20122;-66
2024/01/13 00:55:15;;;;;;;1999.90;999.90;;;;;;;-1.10;68.49;96741.94;5113019;28;20082;-63
2024/01/13 00:57:42;;;;;;;1999.90;999.90;;;;;;;-1.08;68.33;96743.69;5113206;28;20079;-67
2024/01/13 01:00:11;;;;;;;1999.90;999.90;;;;;;;-1.10;68.01;96737.69;5112978;28;20126;-64
2024/01/13 01:02:38;;;;;;;1999.90;999.90;;;;;;;-1.10;68.15;96736.81;5113013;28;20050;-68
2024/01/13 01:05:06;;;;;;;1999.90;999.90;;;;;;;-1.12;67.63;96730.81;5113144;28;20051;-66
2024/01/13 01:07:33;;;;;;;1999.90;999.90;;;;;;;-1.13;67.77;96735.09;5113061;28;20040;-65
2024/01/13 01:10:00;;;;;;;1999.90;999.90;;;;;;;-1.11;67.65;96728.28;5112861;28;20056;-66
2024/01/13 01:12:27;;;;;;;1999.90;999.90;;;;;;;-1.12;68.16;96723.97;5112956;28;20416;-65
2024/01/13 01:14:55;;;;;;;1999.90;999.90;;;;;;;-1.13;67.95;96729.06;5116534;28;20551;-67
2024/01/13 01:17:22;;;;;;;1999.90;999.90;;;;;;;-1.18;67.49;96729.00;5116597;28;20047;-65
2024/01/13 01:19:49;;;;;;;1999.90;999.90;;;;;;;-1.23;67.86;96731.56;5116544;28;20082;-67
2024/01/13 01:22:16;;;;;;;1999.90;999.90;;;;;;;-1.26;68.29;96726.38;5116560;28;20497;-68
2024/01/13 01:24:44;;;;;;;1999.90;999.90;;;;;;;-1.25;68.18;96727.22;5116494;28;20481;-67
2024/01/13 01:27:12;;;;;;;1999.90;999.90;;;;;;;-1.25;68.28;96724.66;5116387;28;20130;-69
2024/01/13 01:29:39;;;;;;;1999.90;999.90;;;;;;;-1.21;68.56;96718.75;5116560;28;20400;-68
2024/01/13 01:32:07;;;;;;;1999.90;999.90;;;;;;;-1.20;68.68;96718.72;5116585;28;20075;-67
2024/01/13 01:34:34;;;;;;;1999.90;999.90;;;;;;;-1.19;68.62;96719.59;5116301;28;20514;-66
2024/01/13 01:37:01;;;;;;;1999.90;999.90;;;;;;;-1.19;68.99;96717.03;5116384;28;20075;-65
2024/01/13 01:39:28;;;;;;;1999.90;999.90;;;;;;;-1.19;69.07;96706.75;5116252;28;20094;-66
2024/01/13 01:41:56;;;;;;;1999.90;999.90;;;;;;;-1.18;68.71;96705.91;5116206;28;20097;-68
2024/01/13 01:44:23;;;;;;;1999.90;999.90;;;;;;;-1.17;68.85;96705.09;5116212;28;20436;-66
2024/01/13 01:46:52;;;;;;;1999.90;999.90;;;;;;;-1.21;68.97;96705.91;5116027;28;20105;-66
2024/01/13 01:49:20;;;;;;;1999.90;999.90;;;;;;;-1.23;68.91;96708.44;5116103;28;20043;-67
2024/01/13 01:51:47;;;;;;;1999.90;999.90;;;;;;;-1.22;68.90;96705.03;5115825;28;20082;-66
2024/01/13 01:54:14;;;;;;;1999.90;999.90;;;;;;;-1.25;68.55;96699.84;5116013;28;20143;-67
2024/01/13 01:56:42;;;;;;;1999.90;999.90;;;;;;;-1.27;68.58;96692.13;5115964;28;20467;-66
2024/01/13 01:59:10;;;;;;;1999.90;999.90;;;;;;;-1.31;69.26;96692.94;5115953;28;20048;-69
2024/01/13 02:01:38;;;;;;;1999.90;999.90;;;;;;;-1.31;69.03;96687.81;5115941;28;20077;-64
2024/01/13 02:04:05;;;;;;;1999.90;999.90;;;;;;;-1.36;69.13;96679.19;5115922;28;20120;-68
2024/01/13 02:06:33;;;;;;;1999.90;999.90;;;;;;;-1.43;68.98;96680.84;5115713;28;20477;-65
2024/01/13 02:09:00;;;;;;;1999.90;999.90;;;;;;;-1.45;68.83;96684.22;5115649;28;20047;-67
2024/01/13 02:11:27;;;;;;;1999.90;999.90;;;;;;;-1.47;69.53;96678.22;5115593;28;20485;-65
2024/01/13 02:13:55;;;;;;;1999.90;999.90;;;;;;;-1.47;69.41;96678.22;5115548;28;20047;-66
2024/01/13 02:16:23;;;;;;;1999.90;999.90;;;;;;;-1.48;69.60;96676.50;5115443;28;20082;-64
2024/01/13 02:18:50;;;;;;;1999.90;999.90;;;;;;;-1.53;69.36;96684.13;5115578;28;20044;-68
2024/01/13 02:21:17;;;;;;;1999.90;999.90;;;;;;;-1.56;69.75;96681.53;5115519;28;20389;-67
2024/01/13 02:23:46;;;;;;;1999.90;999.90;;;;;;;-1.57;69.79;96678.09;5115480;28;20047;-66
2024/01/13 02:26:13;;;;;;;1999.90;999.90;;;;;;;-1.62;70.29;96677.19;5114753;28;20048;-66
2024/01/13 02:28:40;;;;;;;1999.90;999.90;;;;;;;-1.67;70.22;96679.69;5115363;28;20132;-66
2024/01/13 02:31:07;;;;;;;1999.90;999.90;;;;;;;-1.67;69.67;96681.38;5115134;28;20063;-66
2024/01/13 02:33:34;;;;;;;1999.90;999.90;;;;;;;-1.73;69.71;96682.19;5115255;28;20082;-67
2024/01/13 02:36:01;;;;;;;1999.90;999.90;;;;;;;-1.79;69.51;96682.09;5115091;28;20086;-68
2024/01/13 02:38:28;;;;;;;1999.90;999.90;;;;;;;-1.83;69.81;96688.91;5115172;28;20105;-67
2024/01/13 02:40:56;;;;;;;1999.90;999.90;;;;;;;-1.76;69.88;96692.41;5115041;28;20432;-64
2024/01/13 02:43:24;;;;;;;1999.90;999.90;;;;;;;-1.72;70.09;96698.44;5115110;28;20043;-67
2024/01/13 02:45:51;;;;;;;1999.90;999.90;;;;;;;-1.81;68.84;96694.03;5114726;28;20400;-66
2024/01/13 02:48:19;;;;;;;1999.90;999.90;;;;;;;-1.79;69.15;96693.22;5115003;28;20079;-64
2024/01/13 02:50:56;;;;;;;1999.90;999.90;;;;;;;-1.80;69.09;96696.63;5114547;28;20055;-66
2024/01/13 02:53:23;;;;;;;1999.90;999.90;;;;;;;-1.75;69.13;96691.53;5114774;28;20039;-65
2024/01/13 02:55:50;;;;;;;1999.90;999.90;;;;;;;-1.73;69.08;96699.25;5114686;28;20048;-65
2024/01/13 02:58:18;;;;;;;1999.90;999.90;;;;;;;-1.70;69.32;96700.19;5114750;28;20043;-65
2024/01/13 03:00:45;;;;;;;1999.90;999.90;;;;;;;-1.65;69.76;96698.53;5114834;28;20048;-68
2024/01/13 03:03:12;;;;;;;1999.90;999.90;;;;;;;-1.62;69.34;96696.84;5114600;28;20044;-67
2024/01/13 03:05:39;;;;;;;1999.90;999.90;;;;;;;-1.62;69.84;96695.16;5114657;28;20043;-65
2024/01/13 03:08:07;;;;;;;1999.90;999.90;;;;;;;-1.60;69.69;96696.00;5114522;28;20052;-68
2024/01/13 03:10:34;;;;;;;1999.90;999.90;;;;;;;-1.61;69.89;96684.03;5114554;28;20074;-63
2024/01/13 03:13:01;;;;;;;1999.90;999.90;;;;;;;-1.60;69.83;96685.75;5114480;28;20055;-68
2024/01/13 03:15:30;;;;;;;1999.90;999.90;;;;;;;-1.59;69.87;96690.06;5114192;28;20059;-65
2024/01/13 03:17:57;;;;;;;1999.90;999.90;;;;;;;-1.58;69.93;96689.22;5114367;28;20043;-67
2024/01/13 03:20:24;;;;;;;1999.90;999.90;;;;;;;-1.56;70.23;96684.09;5114132;28;20055;-67
2024/01/13 03:22:51;;;;;;;1999.90;999.90;;;;;;;-1.57;69.98;96682.34;5114266;28;20047;-68
2024/01/13 03:25:18;;;;;;;1999.90;999.90;;;;;;;-1.59;69.88;96679.81;5114376;28;20080;-66
2024/01/13 03:27:45;;;;;;;1999.90;999.90;;;;;;;-1.62;69.58;96679.75;5114263;28;20050;-65
2024/01/13 03:30:13;;;;;;;1999.90;999.90;;;;;;;-1.65;69.47;96680.56;5114059;28;20054;-65
2024/01/13 03:32:41;;;;;;;1999.90;999.90;;;;;;;-1.65;69.47;96674.59;5114134;28;20056;-66
2024/01/13 03:35:10;;;;;;;1999.90;999.90;;;;;;;-1.66;69.12;96668.59;5113983;28;20052;-62
2024/01/13 03:37:37;;;;;;;1999.90;999.90;;;;;;;-1.65;69.22;96666.88;5113032;28;20459;-67
2024/01/13 03:40:04;;;;;;;1999.90;999.90;;;;;;;-1.65;69.49;96662.59;5114005;28;20089;-62
2024/01/13 03:42:31;;;;;;;1999.90;999.90;;;;;;;-1.65;69.48;96664.31;5113904;28;20043;-68
2024/01/13 03:44:58;;;;;;;1999.90;999.90;;;;;;;-1.67;69.68;96678.81;5113966;28;20052;-65
2024/01/13 03:47:25;;;;;;;1999.90;999.90;;;;;;;-1.72;69.80;96675.34;5113886;28;20047;-66
2024/01/13 03:49:54;;;;;;;1999.90;999.90;;;;;;;-1.76;69.83;96673.56;5113818;28;20054;-65
2024/01/13 03:52:21;;;;;;;1999.90;999.90;;;;;;;-1.82;69.64;96671.78;5113662;28;20082;-66
2024/01/13 03:54:48;;;;;;;1999.90;999.90;;;;;;;-1.85;69.83;96671.75;5113779;28;20123;-67
2024/01/13 03:57:15;;;;;;;1999.90;999.90;;;;;;;-1.91;69.93;96669.97;5113685;28;20058;-66
2024/01/13 03:59:42;;;;;;;1999.90;999.90;;;;;;;-1.92;70.29;96663.13;5113589;28;20039;-64
2024/01/13 04:02:09;;;;;;;1999.90;999.90;;;;;;;-1.91;70.10;96673.41;5113634;28;20122;-66
2024/01/13 04:04:36;;;;;;;1999.90;999.90;;;;;;;-1.93;70.13;96672.50;5113505;28;20493;-68
2024/01/13 04:07:05;;;;;;;1999.90;999.90;;;;;;;-1.93;70.54;96676.75;5113625;28;20074;-68
2024/01/13 04:09:32;;;;;;;1999.90;999.90;;;;;;;-1.95;70.79;96675.91;5113633;28;20043;-65
2024/01/13 04:11:59;;;;;;;1999.90;999.90;;;;;;;-1.95;70.70;96686.16;5113484;28;20448;-67
2024/01/13 04:14:26;;;;;;;1999.90;999.90;;;;;;;-1.97;70.95;96683.56;5113503;28;20101;-64
2024/01/13 04:16:53;;;;;;;1999.90;999.90;;;;;;;-1.98;70.85;96683.56;5113349;28;20058;-67
2024/01/13 04:19:20;;;;;;;1999.90;999.90;;;;;;;-2.00;70.73;96687.78;5113386;28;20044;-68
2024/01/13 04:21:47;;;;;;;1999.90;999.90;;;;;;;-2.01;70.86;96693.75;5113460;28;20047;-64
2024/01/13 04:24:15;;;;;;;1999.90;999.90;;;;;;;-2.03;70.74;96697.19;5113390;28;20097;-66
2024/01/13 04:26:43;;;;;;;1999.90;999.90;;;;;;;-2.01;70.77;96697.19;5113429;28;20151;-67
2024/01/13 04:29:10;;;;;;;1999.90;999.90;;;;;;;-2.04;70.98;96710.81;5113340;28;20047;-66
2024/01/13 04:31:37;;;;;;;1999.90;999.90;;;;;;;-2.03;70.86;96698.88;5113285;28;20424;-65
2024/01/13 04:34:04;;;;;;;1999.90;999.90;;;;;;;-2.06;70.94;96688.56;5113347;28;20075;-62
2024/01/13 04:36:31;;;;;;;1999.90;999.90;;;;;;;-2.09;71.42;96702.22;5113197;28;20043;-64
2024/01/13 04:38:58;;;;;;;1999.90;999.90;;;;;;;-2.08;71.71;96698.78;5113263;28;20047;-65
2024/01/13 04:41:27;;;;;;;1999.90;999.90;;;;;;;-2.09;71.63;96699.66;5113285;28;20078;-64
2024/01/13 04:43:54;;;;;;;1999.90;999.90;;;;;;;-2.09;71.85;96694.53;5113232;28;20105;-67
2024/01/13 04:46:21;;;;;;;1999.90;999.90;;;;;;;-2.09;71.94;96697.09;5113174;28;20139;-65
2024/01/13 04:48:48;;;;;;;1999.90;999.90;;;;;;;-2.06;71.62;96702.25;5115179;28;20172;-68
2024/01/13 04:51:16;;;;;;;1999.90;999.90;;;;;;;-2.07;72.14;96700.53;5116874;28;20040;-67
2024/01/13 04:53:43;;;;;;;1999.90;999.90;;;;;;;-2.09;71.99;96685.94;5117107;28;20108;-66
2024/01/13 04:56:11;;;;;;;1999.90;999.90;;;;;;;-2.04;72.13;96695.44;5117140;28;20055;-63
2024/01/13 04:58:39;;;;;;;1999.90;999.90;;;;;;;-2.08;72.21;96685.97;5116968;28;20120;-66
2024/01/13 05:01:06;;;;;;;1999.90;999.90;;;;;;;-2.08;72.32;96687.69;5116975;28;20131;-65
2024/01/13 05:03:33;;;;;;;1999.90;999.90;;;;;;;-2.09;72.29;96686.81;5117003;28;20127;-67
2024/01/13 05:06:00;;;;;;;1999.90;999.90;;;;;;;-2.08;72.40;96688.53;5116905;28;20100;-65
2024/01/13 05:08:27;;;;;;;1999.90;999.90;;;;;;;-2.09;72.86;96696.22;5116840;28;20051;-64
2024/01/13 05:10:54;;;;;;;1999.90;999.90;;;;;;;-2.12;73.25;96696.16;5116819;28;20138;-66
2024/01/13 05:13:21;;;;;;;1999.90;999.90;;;;;;;-2.19;73.70;96682.41;5116688;28;20482;-65
2024/01/13 05:15:50;;;;;;;1999.90;999.90;;;;;;;-2.21;73.59;96674.69;5116709;28;20124;-65
2024/01/13 05:18:17;;;;;;;1999.90;999.90;;;;;;;-2.14;73.38;96678.19;5116755;28;20051;-67
2024/01/13 05:20:45;;;;;;;1999.90;999.90;;;;;;;-2.17;73.27;96686.72;5116506;28;20087;-65
2024/01/13 05:23:12;;;;;;;1999.90;999.90;;;;;;;-2.13;73.44;96686.75;5116641;28;20043;-68
2024/01/13 05:25:39;;;;;;;1999.90;999.90;;;;;;;-2.13;73.13;96692.75;5116435;28;20047;-65
2024/01/13 05:28:06;;;;;;;1999.90;999.90;;;;;;;-2.14;73.57;96678.19;5116475;28;20518;-68
2024/01/13 05:30:33;;;;;;;1999.90;999.90;;;;;;;-2.11;73.23;96679.97;5116516;28;20044;-68
2024/01/13 05:33:02;;;;;;;1999.90;999.90;;;;;;;-2.08;72.92;96685.97;5116393;28;20047;-68
2024/01/13 05:35:30;;;;;;;1999.90;999.90;;;;;;;-2.07;73.24;96680.03;5116407;28;20054;-66
2024/01/13 05:37:57;;;;;;;1999.90;999.90;;;;;;;-2.07;73.19;96679.16;5116228;28;20055;-66
2024/01/13 05:40:25;;;;;;;1999.90;999.90;;;;;;;-2.04;73.12;96674.06;5116174;28;20047;-65
2024/01/13 05:42:52;;;;;;;1999.90;999.90;;;;;;;-2.02;73.15;96680.06;5116354;28;20116;-66
2024/01/13 05:45:19;;;;;;;1999.90;999.90;;;;;;;-1.98;72.63;96680.97;5116271;28;20058;-66
2024/01/13 05:47:46;;;;;;;1999.90;999.90;;;;;;;-1.98;72.32;96680.97;5116047;28;20044;-65
2024/01/13 05:50:15;;;;;;;1999.90;999.90;;;;;;;-1.99;72.63;96671.56;5116031;28;20047;-65
2024/01/13 05:52:42;;;;;;;1999.90;999.90;;;;;;;-1.99;72.65;96682.69;5115806;28;20047;-65
2024/01/13 05:55:10;;;;;;;1999.90;999.90;;;;;;;-2.01;72.14;96686.06;5116024;28;20048;-66
2024/01/13 05:57:37;;;;;;;1999.90;999.90;;;;;;;-1.98;72.40;96683.56;5115931;28;20051;-64
2024/01/13 06:00:05;;;;;;;1999.90;999.90;;;;;;;-2.03;72.10;96683.47;5114843;28;20079;-67
2024/01/13 06:02:32;;;;;;;1999.90;999.90;;;;;;;-2.08;72.03;96685.13;5115841;28;20096;-67
2024/01/13 06:04:59;;;;;;;1999.90;999.90;;;;;;;-2.12;72.32;96678.22;5115800;28;20043;-67
2024/01/13 06:07:28;;;;;;;1999.90;999.90;;;;;;;-2.08;72.16;96680.00;5115690;28;20043;-64
2024/01/13 06:09:55;;;;;;;1999.90;999.90;;;;;;;-2.06;72.73;96678.31;5115675;28;20048;-66
2024/01/13 06:12:22;;;;;;;1999.90;999.90;;;;;;;-2.05;72.31;96675.78;5115567;28;20049;-66
2024/01/13 06:14:49;;;;;;;1999.90;999.90;;;;;;;-2.04;72.37;96666.38;5115590;28;20052;-66
2024/01/13 06:17:17;;;;;;;1999.90;999.90;;;;;;;-2.06;72.19;96660.34;5115361;28;20489;-66
2024/01/13 06:19:45;;;;;;;1999.90;999.90;;;;;;;-2.06;72.27;96660.34;5115438;28;20051;-66
2024/01/13 06:22:12;;;;;;;1999.90;999.90;;;;;;;-2.07;72.59;96656.09;5115392;28;20083;-64
2024/01/13 06:24:41;;;;;;;1999.90;999.90;;;;;;;-2.04;72.64;96668.94;5115539;28;20047;-68
2024/01/13 06:27:08;;;;;;;1999.90;999.90;;;;;;;-1.97;73.25;96675.00;5115356;28;20046;-65
2024/01/13 06:29:35;;;;;;;1999.90;999.90;;;;;;;-1.73;73.14;96671.91;5115297;28;20453;-65
2024/01/13 06:32:03;;;;;;;1999.90;999.90;;;;;;;-1.50;72.14;96675.59;5115161;28;20050;-65
2024/01/13 06:34:30;;;;;;;1999.90;999.90;;;;;;;-1.43;71.21;96675.69;5115154;28;20043;-63
2024/01/13 06:36:57;;;;;;;1999.90;999.90;;;;;;;-1.38;70.92;96675.75;5115080;28;20048;-67
2024/01/13 06:39:25;;;;;;;1999.90;999.90;;;;;;;-1.37;70.04;96680.03;5115045;28;20051;-65
2024/01/13 06:41:53;;;;;;;1999.90;999.90;;;;;;;-1.35;70.01;96682.63;5115031;28;20131;-63
2024/01/13 06:44:21;;;;;;;1999.90;999.90;;;;;;;-1.33;69.21;96686.94;5114963;28;20100;-67
2024/01/13 06:46:49;;;;;;;1999.90;999.90;;;;;;;-1.34;68.93;96681.78;5114915;28;20068;-67
2024/01/13 06:49:17;;;;;;;1999.90;999.90;;;;;;;-1.31;68.78;96681.81;5114812;28;20082;-65
2024/01/13 06:51:44;;;;;;;1999.90;999.90;;;;;;;-1.34;68.94;96685.22;5114580;28;20048;-67
2024/01/13 06:54:12;;;;;;;1999.90;999.90;;;;;;;-1.34;69.19;96686.91;5114796;28;20051;-66
2024/01/13 06:56:41;;;;;;;1999.90;999.90;;;;;;;-1.29;69.26;96687.84;5114649;28;20048;-64
2024/01/13 06:59:10;;;;;;;1999.90;999.90;;;;;;;-1.28;69.61;96685.28;5114690;28;20481;-66
2024/01/13 07:01:38;;;;;;;1999.90;999.90;;;;;;;-1.23;69.31;96685.34;5114564;28;20477;-68
2024/01/13 07:04:05;;;;;;;1999.90;999.90;;;;;;;-1.28;69.19;96681.84;5114606;28;20040;-65
2024/01/13 07:06:34;;;;;;;1999.90;999.90;;;;;;;-1.32;68.91;96678.38;5114476;28;20050;-67
2024/01/13 07:09:02;;;;;;;1999.90;999.90;;;;;;;-1.22;67.86;96692.19;5114499;28;20485;-65
2024/01/13 07:11:29;;;;;;;1999.90;999.90;;;;;;;-1.11;67.02;96689.75;5114237;28;20059;-65
2024/01/13 07:13:57;;;;;;;1999.90;999.90;;;;;;;-1.06;65.05;96689.78;5114381;28;20050;-66
2024/01/13 07:16:28;;;;;;;1999.90;999.90;;;;;;;-1.03;65.67;96695.81;5114249;28;20431;-64
2024/01/13 07:18:56;;;;;;;1999.90;999.90;;;;;;;-1.00;64.59;96692.41;5114325;28;20050;-67
2024/01/13 07:21:25;;;;;;;1999.90;999.90;;;;;;;-1.07;64.36;96691.50;5114190;28;20113;-68
2024/01/13 07:23:54;;;;;;;1999.90;999.90;;;;;;;-1.08;64.52;96689.75;5114087;28;20043;-65
2024/01/13 07:26:22;;;;;;;1999.90;999.90;;;;;;;-0.99;63.64;96693.28;5114078;28;20052;-63
2024/01/13 07:28:50;;;;;;;1999.90;999.90;;;;;;;-0.99;64.45;96698.41;5114110;28;20050;-64
2024/01/13 07:31:30;;;;;;;1999.90;999.90;;;;;;;-0.87;63.79;96693.41;5114151;28;20043;-68
2024/01/13 07:33:58;;;;;;;1999.90;999.90;;;;;;;-0.75;62.87;96696.94;5113869;28;20079;-66
2024/01/13 07:36:26;;;;;;;1999.90;999.90;;;;;;;-0.57;61.42;96697.09;5113999;28;20050;-65
2024/01/13 07:38:53;;;;;;;1999.90;999.90;;;;;;;0.08;60.63;96686.44;5113908;28;20459;-63
2024/01/13 07:41:22;;;;;;;1999.90;999.90;;;;;;;0.61;58.04;96675.53;5113935;28;20097;-65
2024/01/13 07:43:51;;;;;;;1999.90;999.90;;;;;;;0.85;56.11;96686.75;5113967;28;20481;-63
2024/01/13 07:46:18;;;;;;;1999.90;999.90;;;;;;;0.89;55.29;96688.47;5113913;28;20483;-63
2024/01/13 07:48:49;;;;;;;1999.90;999.90;;;;;;;0.95;55.37;96692.78;5113796;28;20122;-68
2024/01/13 07:51:17;;;;;;;1999.90;999.90;;;;;;;0.87;55.28;96695.34;5113501;28;20083;-66
2024/01/13 07:53:44;;;;;;;1999.90;999.90;;;;;;;0.65;57.23;96687.53;5113682;28;20048;-68
2024/01/13 07:56:12;;;;;;;1999.90;999.90;;;;;;;0.60;57.85;96686.69;5113649;28;20070;-69
2024/01/13 07:58:40;;;;;;;1999.90;999.90;;;;;;;0.71;57.32;96687.56;5113569;28;20094;-64
2024/01/13 08:01:08;;;;;;;1999.90;999.90;;;;;;;0.64;57.62;96688.41;5113618;28;20127;-65
2024/01/13 08:03:37;;;;;;;1999.90;999.90;;;;;;;0.70;57.51;96690.16;5113580;28;20400;-68
2024/01/13 08:06:06;;;;;;;1999.90;999.90;;;;;;;0.59;57.61;96695.25;5113519;28;20048;-67
2024/01/13 08:08:34;;;;;;;1999.90;999.90;;;;;;;0.45;58.62;96700.34;5113428;28;20079;-64
2024/01/13 08:11:01;;;;;;;1999.90;999.90;;;;;;;0.56;58.87;96690.06;5113515;28;20100;-64
2024/01/13 08:13:28;;;;;;;1999.90;999.90;;;;;;;0.66;58.99;96686.69;5113434;28;20043;-62
2024/01/13 08:15:56;;;;;;;1999.90;999.90;;;;;;;0.54;59.28;96684.91;5113461;28;20051;-67
2024/01/13 08:18:24;;;;;;;1999.90;999.90;;;;;;;0.63;58.59;96686.66;5113384;28;20588;-65
2024/01/13 08:20:51;;;;;;;1999.90;999.90;;;;;;;0.65;58.02;96684.97;5113458;28;20130;-64
2024/01/13 08:23:20;;;;;;;1999.90;999.90;;;;;;;0.69;59.50;96697.00;5114687;28;20047;-68
2024/01/13 08:25:48;;;;;;;1999.90;999.90;;;;;;;1.68;57.09;96697.19;5117640;28;20050;-67
2024/01/13 08:28:16;;;;;;;1999.90;999.90;;;;;;;3.45;52.21;96694.81;5117594;28;20105;-67
2024/01/13 08:30:43;;;;;;;1999.90;999.90;;;;;;;5.44;46.87;96692.66;5117591;28;20040;-67
2024/01/13 08:33:11;;;;;;;1999.90;999.90;;;;;;;6.37;43.41;96689.41;5117537;28;20154;-67
2024/01/13 08:35:38;;;;;;;1999.90;999.90;;;;;;;7.27;41.21;96694.53;5117517;28;20098;-65
2024/01/13 08:38:07;;;;;;;1999.90;999.90;;;;;;;7.19;39.97;96696.44;5117406;28;20061;-62
2024/01/13 08:40:36;;;;;;;1999.90;999.90;;;;;;;8.62;39.12;96686.91;5117368;28;20066;-65
2024/01/13 08:43:04;;;;;;;1999.90;999.90;;;;;;;9.83;36.24;96695.50;5117357;28;20044;-65
2024/01/13 08:45:33;;;;;;;1999.90;999.90;;;;;;;10.87;34.42;96685.03;5117243;28;20044;-67
2024/01/13 08:48:01;;;;;;;1999.90;999.90;;;;;;;10.54;33.58;96680.09;5117160;28;20044;-65
2024/01/13 08:50:28;;;;;;;1999.90;999.90;;;;;;;10.41;34.20;96682.25;5117341;28;20047;-65
2024/01/13 08:52:56;;;;;;;1999.90;999.90;;;;;;;10.42;33.51;96679.56;5117054;28;20047;-66
2024/01/13 08:55:27;;;;;;;1999.90;999.90;;;;;;;9.15;33.97;96677.56;5117048;28;20481;-65
2024/01/13 08:57:58;;;;;;;1999.90;999.90;;;;;;;7.69;37.72;96672.75;5117047;28;20101;-63
2024/01/13 09:00:28;;;;;;;1999.90;999.90;;;;;;;6.69;39.31;96671.47;5117217;28;20066;-64
2024/01/13 09:02:59;;;;;;;1999.90;999.90;;;;;;;5.96;40.12;96667.63;5117083;28;20051;-63
2024/01/13 09:05:27;;;;;;;1999.90;999.90;;;;;;;5.42;40.99;96675.41;5116922;28;20044;-65
2024/01/13 09:07:59;;;;;;;1999.90;999.90;;;;;;;4.86;41.25;96674.44;5117036;28;20051;-65
2024/01/13 09:10:27;;;;;;;1999.90;999.90;;;;;;;4.26;41.89;96671.69;5117072;28;20047;-65
2024/01/13 09:12:57;;;;;;;1999.90;999.90;;;;;;;3.75;42.17;96673.03;5116837;28;20088;-67
2024/01/13 09:15:26;;;;;;;1999.90;999.90;;;;;;;3.19;42.82;96665.69;5116774;28;20044;-67
2024/01/13 09:17:53;;;;;;;1999.90;999.90;;;;;;;2.90;43.68;96666.72;5116661;28;20046;-68
2024/01/13 09:20:20;;;;;;;1999.90;999.90;;;;;;;2.55;45.40;96645.34;5116562;28;20074;-68
2024/01/13 09:22:47;;;;;;;1999.90;999.90;;;;;;;2.51;45.81;96647.13;5116591;28;20093;-64
2024/01/13 09:25:17;;;;;;;1999.90;999.90;;;;;;;2.46;44.66;96640.22;5116621;28;20051;-67
2024/01/13 09:27:45;;;;;;;1999.90;999.90;;;;;;;2.17;45.10;96636.91;5116605;28;20055;-65
2024/01/13 09:30:15;;;;;;;1999.90;999.90;;;;;;;1.98;45.41;96641.22;5116520;28;20051;-68
2024/01/13 09:32:42;;;;;;;;;;;;;;;1.91;46.87;96636.94;5116891;28;20051;-62
2024/01/13 09:35:09;;;;;;;1999.90;999.90;;;;;;;1.96;46.84;96630.06;5116313;28;20335;-65
2024/01/13 09:37:36;;;;;;;1999.90;999.90;;;;;;;2.16;46.96;96614.53;5116276;28;20054;-66
2024/01/13 09:40:04;;;;;;;1999.90;999.90;;;;;;;2.28;46.63;96618.78;5116203;28;20050;-64
2024/01/13 09:42:42;;;;;;;1999.90;999.90;;;;;;;2.52;43.89;96611.78;5116293;28;20079;-63
2024/01/13 09:45:11;;;;;;;1999.90;999.90;;;;;;;2.50;43.83;96608.38;5116156;28;20079;-64
2024/01/13 09:47:39;;;;;;;1999.90;999.90;;;;;;;2.59;44.02;96610.91;5116035;28;20113;-63
2024/01/13 09:50:08;;;;;;;1999.90;999.90;;;;;;;2.35;43.88;96602.41;5116079;28;20136;-65
2024/01/13 09:52:35;;;;;;;1999.90;999.90;;;;;;;2.35;44.34;96601.56;5115838;28;20131;-65
2024/01/13 09:55:06;;;;;;;1999.90;999.90;;;;;;;2.48;43.81;96599.78;5116053;28;20044;-69
2024/01/13 09:57:34;;;;;;;1999.90;999.90;;;;;;;2.65;44.65;96597.94;5115890;28;20055;-66
2024/01/13 10:00:02;;;;;;;1999.90;999.90;;;;;;;2.97;44.08;96593.47;5115956;28;20046;-67
2024/01/13 10:02:29;;;;;;;1999.90;999.90;;;;;;;3.02;42.88;96586.53;5115971;28;20057;-65
2024/01/13 10:04:58;;;;;;;1999.90;999.90;;;;;;;3.01;43.03;96582.22;5115772;28;20430;-69
2024/01/13 10:07:25;;;;;;;1999.90;999.90;;;;;;;2.67;42.81;96576.44;5115841;28;20065;-67
2024/01/13 10:09:53;;;;;;;1999.90;999.90;;;;;;;2.09;44.17;96577.56;5115693;28;20058;-63
2024/01/13 10:12:22;;;;;;;1999.90;999.90;;;;;;;2.14;44.80;96578.38;5115780;28;20044;-68
2024/01/13 10:14:50;;;;;;;1999.90;999.90;;;;;;;2.21;44.84;96576.66;5115585;28;20101;-67
2024/01/13 10:17:18;;;;;;;1999.90;999.90;;;;;;;2.30;43.92;96582.63;5115320;28;20048;-68
2024/01/13 10:19:46;;;;;;;1999.90;999.90;;;;;;;2.18;43.00;96566.34;5115396;28;20489;-68
2024/01/13 10:22:17;;;;;;;1999.90;999.90;;;;;;;2.04;43.94;96570.72;5115342;28;20531;-67
2024/01/13 10:24:45;;;;;;;1999.90;999.90;;;;;;;2.04;44.10;96563.81;5115320;28;20056;-68
2024/01/13 10:27:13;;;;;;;1999.90;999.90;;;;;;;2.09;44.41;96556.91;5115320;28;20568;-66
2024/01/13 10:29:44;;;;;;;1999.90;999.90;;;;;;;2.26;44.14;96563.72;5115351;28;20570;-67
2024/01/13 10:32:12;;;;;;;1999.90;999.90;;;;;;;2.25;42.99;96560.28;5115265;28;20086;-64
2024/01/13 10:34:46;;;;;;;1999.90;999.90;;;;;;;2.23;42.87;96554.25;5115228;28;20047;-68
2024/01/13 10:37:15;;;;;;;1999.90;999.90;;;;;;;2.11;43.26;96555.16;5115011;28;20113;-65
2024/01/13 10:39:43;;;;;;;1999.90;999.90;;;;;;;2.21;44.51;96556.00;5115114;28;20043;-68
2024/01/13 10:42:11;;;;;;;1999.90;999.90;;;;;;;2.36;44.64;96549.91;5115055;28;20043;-65
2024/01/13 10:44:43;;;;;;;1999.90;999.90;;;;;;;2.48;43.76;96545.53;5115019;28;20492;-62
2024/01/13 10:47:15;;;;;;;1999.90;999.90;;;;;;;2.51;42.69;96545.53;5114375;28;20039;-63
2024/01/13 10:49:44;;;;;;;1999.90;999.90;;;;;;;2.56;42.41;96536.00;5115009;28;20048;-69
2024/01/13 10:52:14;;;;;;;1999.90;999.90;;;;;;;2.57;42.58;96536.88;5114527;28;20050;-66
2024/01/13 10:54:45;;;;;;;1999.90;999.90;;;;;;;2.44;45.77;96534.34;5114823;28;20054;-67
2024/01/13 10:57:14;;;;;;;1999.90;999.90;;;;;;;2.47;46.08;96526.59;5114790;28;20044;-65
2024/01/13 10:59:43;;;;;;;1999.90;999.90;;;;;;;2.52;44.98;96526.56;5114668;28;20051;-66